Racecast

Shelby Johnson

RPM Legacy (CA) · 13-14 · PAC · Compare head to head

Athlete rating 124.5 2014 TF season
Best race 125.4 TF
Races 64
Seasons 4 2011 — 2014

RankedNation #1901·CA #168·Team #10 ?

Rating scale ?
Speed rating — all races

Track & Field

TF speed rating

2014 TF 121.1

RPM Legacy (CA) · Grade 13-14

Date Meet Event Result Place Rating Difficulty PR/SR Flags
2014-06-20 USATF Pacific Assoc. Junior Olympics (Top 8) 100m 13.6 20th · 2nd on team -0.031
2014-06-20 USATF Pacific Assoc. Junior Olympics (Top 8) 200m 27.13 17th · 2nd on team -0.031
2014-06-20 USATF Pacific Assoc. Junior Olympics (Top 8) 200m 26.87 14th · 1st on team -0.031 ★PR SR
2014-05-31 Pacific Association Championships (PAC) 100m 13.53 21st · 2nd on team -0.024
2014-05-31 Pacific Association Championships (PAC) 400m 1:03.01 13th · 2nd on team -0.024 SR
2014-05-31 Pacific Association Championships (PAC) 200m 27.02 16th · 1st on team -0.024 PR SR
2014-05-18 3M Invitational 800m 2:40.63 10th · 3rd on team 125.4 -0.028 ★PR ★R SR RSR
2014-05-18 3M Invitational 100m 13.51 13th · 1st on team -0.028 SR
2014-05-18 3M Invitational 400m 1:04.89 7th · 2nd on team -0.028
2014-04-26 Revolution Express TC 200m 28.39 9th · 1st on team -0.024
2014-04-26 Revolution Express TC 800m 2:55.42 7th · 4th on team 114.8 -0.024
2014-04-26 Revolution Express TC 400m 1:04.43 6th · 1st on team -0.024 SR
2014-04-26 Revolution Express TC 100m 13.77 13th · 1st on team -0.024 SR
2014-04-05 Sacramento Speed Showcase 400m 1:06.11 16th · 1st on team -0.033 SR
2014-04-05 Sacramento Speed Showcase 800m 2:42.4 14th · 2nd on team 123.2 -0.033 PR R SR RSR
2014-04-05 Sacramento Speed Showcase 200m 28.1 11th · 1st on team -0.033 SR
2014-03-22 RPM 100m 14.14 27th · 2nd on team -0.012 SR

2013 TF

RPM Legacy (CA) · Grade 13-14

Date Meet Event Result Place Rating Difficulty PR/SR Flags
2013-06-21 Pacific Association Junior Olympics (3-day) 100m 13.71 26th · 1st on team -0.034
2013-06-21 Pacific Association Junior Olympics (3-day) 200m 27.93 23rd · 1st on team -0.034
2013-06-08 Pacific Association Youth Championship (PAC) - 2-day meet 200m 27.69 16th · 1st on team -0.024
2013-05-18 3M Track Club 200m 27.29 12th · 1st on team -0.028 PR SR
2013-05-18 3M Track Club 100m 13.61 26th · 1st on team -0.028
2013-05-18 3M Track Club 400m 1:04.38 13th · 1st on team -0.028
2013-05-04 Hercules / Running Rebels (2-day) 400m 1:04.8 13th · 1st on team -0.038
2013-05-04 Hercules / Running Rebels (2-day) 100m 13.58 30th · 1st on team -0.038
2013-05-04 Hercules / Running Rebels (2-day) 200m 27.97 18th · 1st on team -0.038
2013-04-20 Shor / Sheppard Classic 100m 13.36 13th · 1st on team -0.022 ★PR SR
2013-04-20 Shor / Sheppard Classic 200m 27.9 13th · 1st on team -0.022 SR
2013-04-06 Sacramento Speed Showcase 400m 1:02.91 2nd · 1st on team -0.031 ★PR SR
2013-04-06 Sacramento Speed Showcase 100m 13.81 7th · 1st on team -0.031 SR
2013-04-06 Sacramento Speed Showcase 200m 29.03 10th · 1st on team -0.031 SR

2012 TF

RPM Legacy (CA) · Grade 11-12

Date Meet Event Result Place Rating Difficulty PR/SR Flags
2012-07-06 USATF Region 14 Junior Olympic Championships 200m 29.1 7th · 2nd on team -0.028
2012-07-06 USATF Region 14 Junior Olympic Championships 200m 28.25 3rd · 1st on team -0.028
2012-07-06 USATF Region 14 Junior Olympic Championships 100m 13.68 1st · 1st on team -0.028
2012-07-06 USATF Region 14 Junior Olympic Championships 100m 13.82 3rd · 2nd on team -0.028
2012-07-06 USATF Region 14 Junior Olympic Championships 400m 1:06.9 12th · 4th on team -0.028
2012-07-06 USATF Region 14 Junior Olympic Championships 400m 1:04.92 5th · 1st on team -0.028
2012-06-16 USATF Region 14 Youth Multi Championships 200m 29.1 7th · 2nd on team -0.024
2012-06-16 USATF Region 14 Youth Multi Championships 200m 28.25 3rd · 1st on team -0.024
2012-06-16 USATF Region 14 Youth Multi Championships 100m 13.68 1st · 1st on team -0.024
2012-06-16 USATF Region 14 Youth Multi Championships 100m 13.82 3rd · 2nd on team -0.024
2012-06-16 USATF Region 14 Youth Multi Championships 400m 1:06.9 12th · 4th on team -0.024
2012-06-16 USATF Region 14 Youth Multi Championships 400m 1:04.92 5th · 1st on team -0.024 PR SR
2012-05-19 3M Track Meet 100m 14.03 15th · 2nd on team -0.031
2012-05-19 3M Track Meet 400m 1:08.39 18th · 2nd on team -0.031
2012-05-19 3M Track Meet 200m 28.18 9th · 1st on team -0.031
2012-05-19 3M Track Meet 100m 13.62 8th · 1st on team -0.031 PR SR
2012-05-05 Hercules Running Rebels / Top Pacers Invitational 100m 13.83 10th · 2nd on team -0.038
2012-05-05 Hercules Running Rebels / Top Pacers Invitational 400m 1:05.84 10th · 1st on team -0.038 PR SR
2012-05-05 Hercules Running Rebels / Top Pacers Invitational 200m 27.3 4th · 1st on team -0.038 PR SR
2012-05-05 Hercules Running Rebels / Top Pacers Invitational 100m 13.74 9th · 1st on team -0.038 PR SR
2012-04-21 Shor / Sheppard Classic 100m 13.81 5th · 1st on team -0.022 PR SR
2012-04-21 Shor / Sheppard Classic 400m 1:07.76 11th · 1st on team -0.022
2012-04-07 Phenom Elite 400m 1:07.68 10th · 1st on team -0.022 SR

2011 TF

RPM Legacy (CA) · Grade 11-12

Date Meet Event Result Place Rating Difficulty PR/SR Flags
2011-07-08 Region 14 USATF Junior Olympic T&F Championships 400m 1:10.46 16th · 2nd on team -0.022 PR SR
2011-07-08 Region 14 USATF Junior Olympic T&F Championships 400m 1:07.33 13th · 1st on team -0.022 PR SR
2011-07-08 Region 14 USATF Junior Olympic T&F Championships 200m 28.43 12th · 1st on team -0.022 PR SR
2011-07-08 Region 14 USATF Junior Olympic T&F Championships 200m 28.75 13th · 2nd on team -0.022
2011-05-27 L.A.Jets Invitational 100m 14.54 32nd · 1st on team -0.034 PR SR
2011-05-27 L.A.Jets Invitational 200m 30.04 26th · 1st on team -0.034 PR SR
2011-05-27 L.A.Jets Invitational 400m 1:13.84 62nd · 1st on team -0.034
2011-04-15 CA Track Club Invitational Meet 100m 14.58 20th · 1st on team -0.033 PR SR
2011-04-15 CA Track Club Invitational Meet 200m 30.51 21st · 1st on team -0.033 PR SR
2011-04-15 CA Track Club Invitational Meet 400m 1:11.74 15th · 1st on team -0.033 PR SR